sensor_id;sensor_type;location;lat;lon;timestamp;temperature;humidity
30186;DHT22;31152;49.190;8.122;2023-07-08T00:01:16;23.80;57.40
30186;DHT22;31152;49.190;8.122;2023-07-08T00:03:43;23.80;57.30
30186;DHT22;31152;49.190;8.122;2023-07-08T00:06:16;23.80;57.70
30186;DHT22;31152;49.190;8.122;2023-07-08T00:08:43;23.70;57.80
30186;DHT22;31152;49.190;8.122;2023-07-08T00:11:11;23.60;58.00
30186;DHT22;31152;49.190;8.122;2023-07-08T00:13:38;23.60;58.00
30186;DHT22;31152;49.190;8.122;2023-07-08T00:16:12;23.60;57.90
30186;DHT22;31152;49.190;8.122;2023-07-08T00:18:39;23.50;58.10
30186;DHT22;31152;49.190;8.122;2023-07-08T00:21:14;23.50;58.10
30186;DHT22;31152;49.190;8.122;2023-07-08T00:23:50;23.40;58.10
30186;DHT22;31152;49.190;8.122;2023-07-08T00:26:23;23.40;58.20
30186;DHT22;31152;49.190;8.122;2023-07-08T00:28:54;23.40;58.40
30186;DHT22;31152;49.190;8.122;2023-07-08T00:31:22;23.40;58.40
30186;DHT22;31152;49.190;8.122;2023-07-08T00:33:53;23.30;58.40
30186;DHT22;31152;49.190;8.122;2023-07-08T00:36:26;23.20;58.40
30186;DHT22;31152;49.190;8.122;2023-07-08T00:38:56;23.20;58.50
30186;DHT22;31152;49.190;8.122;2023-07-08T00:41:29;23.10;58.40
30186;DHT22;31152;49.190;8.122;2023-07-08T00:43:57;23.10;58.80
30186;DHT22;31152;49.190;8.122;2023-07-08T00:51:38;23.00;59.00
30186;DHT22;31152;49.190;8.122;2023-07-08T00:54:17;23.00;58.80
30186;DHT22;31152;49.190;8.122;2023-07-08T00:56:59;23.00;59.00
30186;DHT22;31152;49.190;8.122;2023-07-08T00:59:39;23.00;59.00
30186;DHT22;31152;49.190;8.122;2023-07-08T01:02:11;22.90;59.00
30186;DHT22;31152;49.190;8.122;2023-07-08T01:05:03;22.90;59.00
30186;DHT22;31152;49.190;8.122;2023-07-08T01:07:31;22.90;59.30
30186;DHT22;31152;49.190;8.122;2023-07-08T01:10:06;22.80;59.40
30186;DHT22;31152;49.190;8.122;2023-07-08T01:12:44;22.70;59.70
30186;DHT22;31152;49.190;8.122;2023-07-08T01:15:13;22.70;59.90
30186;DHT22;31152;49.190;8.122;2023-07-08T01:17:43;22.70;59.80
30186;DHT22;31152;49.190;8.122;2023-07-08T01:20:11;22.70;59.70
30186;DHT22;31152;49.190;8.122;2023-07-08T01:22:41;22.60;59.70
30186;DHT22;31152;49.190;8.122;2023-07-08T01:25:09;22.50;60.00
30186;DHT22;31152;49.190;8.122;2023-07-08T01:27:39;22.50;60.00
30186;DHT22;31152;49.190;8.122;2023-07-08T01:30:08;22.50;60.10
30186;DHT22;31152;49.190;8.122;2023-07-08T01:32:40;22.50;60.20
30186;DHT22;31152;49.190;8.122;2023-07-08T01:35:11;22.40;60.00
30186;DHT22;31152;49.190;8.122;2023-07-08T01:37:42;22.40;60.40
30186;DHT22;31152;49.190;8.122;2023-07-08T01:42:59;22.30;60.50
30186;DHT22;31152;49.190;8.122;2023-07-08T01:45:32;22.30;60.50
30186;DHT22;31152;49.190;8.122;2023-07-08T01:48:03;22.20;60.70
30186;DHT22;31152;49.190;8.122;2023-07-08T01:50:34;22.20;60.80
30186;DHT22;31152;49.190;8.122;2023-07-08T01:53:09;22.20;60.60
30186;DHT22;31152;49.190;8.122;2023-07-08T01:55:37;22.20;61.60
30186;DHT22;31152;49.190;8.122;2023-07-08T01:58:04;22.20;61.60
30186;DHT22;31152;49.190;8.122;2023-07-08T02:00:30;22.10;60.70
30186;DHT22;31152;49.190;8.122;2023-07-08T02:02:57;22.10;60.70
30186;DHT22;31152;49.190;8.122;2023-07-08T02:05:24;22.10;60.90
30186;DHT22;31152;49.190;8.122;2023-07-08T02:07:51;22.00;60.80
30186;DHT22;31152;49.190;8.122;2023-07-08T02:10:17;22.00;60.50
30186;DHT22;31152;49.190;8.122;2023-07-08T02:12:44;22.00;60.50
30186;DHT22;31152;49.190;8.122;2023-07-08T02:15:13;21.90;60.50
30186;DHT22;31152;49.190;8.122;2023-07-08T02:17:40;22.00;61.00
30186;DHT22;31152;49.190;8.122;2023-07-08T02:20:10;21.90;60.70
30186;DHT22;31152;49.190;8.122;2023-07-08T02:22:36;22.00;60.70
30186;DHT22;31152;49.190;8.122;2023-07-08T02:25:03;22.00;60.80
30186;DHT22;31152;49.190;8.122;2023-07-08T02:27:31;22.00;60.70
30186;DHT22;31152;49.190;8.122;2023-07-08T02:29:58;21.90;60.20
30186;DHT22;31152;49.190;8.122;2023-07-08T02:32:25;21.90;60.50
30186;DHT22;31152;49.190;8.122;2023-07-08T02:34:52;22.00;60.80
30186;DHT22;31152;49.190;8.122;2023-07-08T02:37:23;21.90;60.80
30186;DHT22;31152;49.190;8.122;2023-07-08T02:39:50;22.00;60.80
30186;DHT22;31152;49.190;8.122;2023-07-08T02:42:17;21.90;60.40
30186;DHT22;31152;49.190;8.122;2023-07-08T02:44:43;21.90;60.60
30186;DHT22;31152;49.190;8.122;2023-07-08T02:47:12;21.90;60.80
30186;DHT22;31152;49.190;8.122;2023-07-08T02:49:39;21.90;60.90
30186;DHT22;31152;49.190;8.122;2023-07-08T02:52:06;21.90;60.70
30186;DHT22;31152;49.190;8.122;2023-07-08T02:54:33;21.90;60.90
30186;DHT22;31152;49.190;8.122;2023-07-08T02:57:02;21.90;61.00
30186;DHT22;31152;49.190;8.122;2023-07-08T02:59:29;21.80;60.90
30186;DHT22;31152;49.190;8.122;2023-07-08T03:01:58;21.80;60.80
30186;DHT22;31152;49.190;8.122;2023-07-08T03:04:25;21.80;60.90
30186;DHT22;31152;49.190;8.122;2023-07-08T03:06:54;21.80;60.50
30186;DHT22;31152;49.190;8.122;2023-07-08T03:09:21;21.70;60.30
30186;DHT22;31152;49.190;8.122;2023-07-08T03:11:48;21.70;60.60
30186;DHT22;31152;49.190;8.122;2023-07-08T03:14:14;21.70;60.70
30186;DHT22;31152;49.190;8.122;2023-07-08T03:16:43;21.70;60.90
30186;DHT22;31152;49.190;8.122;2023-07-08T03:19:11;21.70;60.80
30186;DHT22;31152;49.190;8.122;2023-07-08T03:21:41;21.70;60.90
30186;DHT22;31152;49.190;8.122;2023-07-08T03:24:13;21.60;61.00
30186;DHT22;31152;49.190;8.122;2023-07-08T03:26:40;21.60;60.80
30186;DHT22;31152;49.190;8.122;2023-07-08T03:29:10;21.60;61.00
30186;DHT22;31152;49.190;8.122;2023-07-08T03:31:39;21.50;60.80
30186;DHT22;31152;49.190;8.122;2023-07-08T03:34:09;21.50;60.80
30186;DHT22;31152;49.190;8.122;2023-07-08T03:36:42;21.50;61.20
30186;DHT22;31152;49.190;8.122;2023-07-08T03:39:20;21.50;61.40
30186;DHT22;31152;49.190;8.122;2023-07-08T03:41:48;21.50;61.60
30186;DHT22;31152;49.190;8.122;2023-07-08T03:44:15;21.50;61.50
30186;DHT22;31152;49.190;8.122;2023-07-08T03:46:47;21.50;61.60
30186;DHT22;31152;49.190;8.122;2023-07-08T03:49:22;21.50;61.70
30186;DHT22;31152;49.190;8.122;2023-07-08T03:51:54;21.50;61.70
30186;DHT22;31152;49.190;8.122;2023-07-08T03:54:23;21.50;61.70
30186;DHT22;31152;49.190;8.122;2023-07-08T03:56:51;21.50;62.00
30186;DHT22;31152;49.190;8.122;2023-07-08T03:59:18;21.50;61.70
30186;DHT22;31152;49.190;8.122;2023-07-08T04:01:45;21.60;61.50
30186;DHT22;31152;49.190;8.122;2023-07-08T04:04:14;21.60;61.60
30186;DHT22;31152;49.190;8.122;2023-07-08T04:06:44;21.60;61.60
30186;DHT22;31152;49.190;8.122;2023-07-08T04:09:14;21.60;61.50
30186;DHT22;31152;49.190;8.122;2023-07-08T04:11:41;21.60;61.20
30186;DHT22;31152;49.190;8.122;2023-07-08T04:14:10;21.60;61.30
30186;DHT22;31152;49.190;8.122;2023-07-08T04:16:55;21.70;61.80
30186;DHT22;31152;49.190;8.122;2023-07-08T04:19:25;21.70;61.70
30186;DHT22;31152;49.190;8.122;2023-07-08T04:21:55;21.80;62.00
30186;DHT22;31152;49.190;8.122;2023-07-08T04:24:24;21.80;61.60
30186;DHT22;31152;49.190;8.122;2023-07-08T04:26:51;21.80;61.70
30186;DHT22;31152;49.190;8.122;2023-07-08T04:29:20;21.90;62.00
30186;DHT22;31152;49.190;8.122;2023-07-08T04:31:48;21.90;61.90
30186;DHT22;31152;49.190;8.122;2023-07-08T04:34:15;22.00;63.20
30186;DHT22;31152;49.190;8.122;2023-07-08T04:36:43;22.00;64.10
30186;DHT22;31152;49.190;8.122;2023-07-08T04:39:10;22.10;65.70
30186;DHT22;31152;49.190;8.122;2023-07-08T04:41:38;22.20;66.70
30186;DHT22;31152;49.190;8.122;2023-07-08T04:44:13;22.20;67.00
30186;DHT22;31152;49.190;8.122;2023-07-08T04:46:48;22.20;65.70
30186;DHT22;31152;49.190;8.122;2023-07-08T04:49:17;22.30;65.10
30186;DHT22;31152;49.190;8.122;2023-07-08T04:51:44;22.30;64.70
30186;DHT22;31152;49.190;8.122;2023-07-08T04:54:11;22.30;64.70
30186;DHT22;31152;49.190;8.122;2023-07-08T04:56:56;22.20;65.30
30186;DHT22;31152;49.190;8.122;2023-07-08T04:59:24;22.20;65.10
30186;DHT22;31152;49.190;8.122;2023-07-08T05:01:52;22.20;65.50
30186;DHT22;31152;49.190;8.122;2023-07-08T05:04:21;22.30;65.40
30186;DHT22;31152;49.190;8.122;2023-07-08T05:06:48;22.20;65.90
30186;DHT22;31152;49.190;8.122;2023-07-08T05:09:15;22.30;66.20
30186;DHT22;31152;49.190;8.122;2023-07-08T05:11:43;22.30;66.10
30186;DHT22;31152;49.190;8.122;2023-07-08T05:14:12;22.30;65.70
30186;DHT22;31152;49.190;8.122;2023-07-08T05:16:41;22.30;65.40
30186;DHT22;31152;49.190;8.122;2023-07-08T05:19:08;22.30;64.90
30186;DHT22;31152;49.190;8.122;2023-07-08T05:21:35;22.30;64.40
30186;DHT22;31152;49.190;8.122;2023-07-08T05:24:04;22.20;64.00
30186;DHT22;31152;49.190;8.122;2023-07-08T05:26:33;22.30;64.20
30186;DHT22;31152;49.190;8.122;2023-07-08T05:29:00;22.20;63.00
30186;DHT22;31152;49.190;8.122;2023-07-08T05:31:28;22.30;63.00
30186;DHT22;31152;49.190;8.122;2023-07-08T05:34:12;22.30;62.90
30186;DHT22;31152;49.190;8.122;2023-07-08T05:36:39;22.30;63.30
30186;DHT22;31152;49.190;8.122;2023-07-08T05:39:06;22.40;63.80
30186;DHT22;31152;49.190;8.122;2023-07-08T05:41:33;22.40;63.40
30186;DHT22;31152;49.190;8.122;2023-07-08T05:44:02;22.40;64.60
30186;DHT22;31152;49.190;8.122;2023-07-08T05:46:31;22.50;64.10
30186;DHT22;31152;49.190;8.122;2023-07-08T05:48:58;22.50;64.80
30186;DHT22;31152;49.190;8.122;2023-07-08T05:51:28;22.30;66.70
30186;DHT22;31152;49.190;8.122;2023-07-08T05:53:54;22.30;68.20
30186;DHT22;31152;49.190;8.122;2023-07-08T05:56:21;22.30;69.00
30186;DHT22;31152;49.190;8.122;2023-07-08T05:58:48;22.10;71.30
30186;DHT22;31152;49.190;8.122;2023-07-08T06:01:17;22.00;71.20
30186;DHT22;31152;49.190;8.122;2023-07-08T06:03:44;21.90;74.50
30186;DHT22;31152;49.190;8.122;2023-07-08T06:06:15;21.80;74.80
30186;DHT22;31152;49.190;8.122;2023-07-08T06:08:42;21.70;78.90
30186;DHT22;31152;49.190;8.122;2023-07-08T06:11:09;21.50;82.20
30186;DHT22;31152;49.190;8.122;2023-07-08T06:13:36;21.40;82.50
30186;DHT22;31152;49.190;8.122;2023-07-08T06:16:03;21.30;83.30
30186;DHT22;31152;49.190;8.122;2023-07-08T06:18:30;21.20;84.80
30186;DHT22;31152;49.190;8.122;2023-07-08T06:20:58;21.10;87.10
30186;DHT22;31152;49.190;8.122;2023-07-08T06:23:26;21.10;88.60
30186;DHT22;31152;49.190;8.122;2023-07-08T06:25:53;21.10;87.40
30186;DHT22;31152;49.190;8.122;2023-07-08T06:28:20;21.20;89.30
30186;DHT22;31152;49.190;8.122;2023-07-08T06:30:49;21.20;87.60
30186;DHT22;31152;49.190;8.122;2023-07-08T06:33:16;21.30;89.10
30186;DHT22;31152;49.190;8.122;2023-07-08T06:35:43;21.40;88.10
30186;DHT22;31152;49.190;8.122;2023-07-08T06:38:10;21.40;90.60
30186;DHT22;31152;49.190;8.122;2023-07-08T06:40:37;21.50;90.90
30186;DHT22;31152;49.190;8.122;2023-07-08T06:43:04;21.50;91.30
30186;DHT22;31152;49.190;8.122;2023-07-08T06:45:31;21.60;91.50
30186;DHT22;31152;49.190;8.122;2023-07-08T06:47:57;21.70;91.70
30186;DHT22;31152;49.190;8.122;2023-07-08T06:50:27;21.80;92.00
30186;DHT22;31152;49.190;8.122;2023-07-08T06:52:56;21.90;91.70
30186;DHT22;31152;49.190;8.122;2023-07-08T06:55:23;22.00;92.50
30186;DHT22;31152;49.190;8.122;2023-07-08T06:57:53;22.00;92.60
30186;DHT22;31152;49.190;8.122;2023-07-08T07:00:22;22.10;92.70
30186;DHT22;31152;49.190;8.122;2023-07-08T07:02:50;22.20;92.80
30186;DHT22;31152;49.190;8.122;2023-07-08T07:05:19;22.20;93.60
30186;DHT22;31152;49.190;8.122;2023-07-08T07:07:49;22.20;94.30
30186;DHT22;31152;49.190;8.122;2023-07-08T07:10:16;22.40;95.00
30186;DHT22;31152;49.190;8.122;2023-07-08T07:12:43;22.60;95.70
30186;DHT22;31152;49.190;8.122;2023-07-08T07:15:10;22.80;96.30
30186;DHT22;31152;49.190;8.122;2023-07-08T07:17:39;23.10;96.30
30186;DHT22;31152;49.190;8.122;2023-07-08T07:20:07;23.40;96.00
30186;DHT22;31152;49.190;8.122;2023-07-08T07:22:34;23.50;96.50
30186;DHT22;31152;49.190;8.122;2023-07-08T07:25:01;23.50;96.10
30186;DHT22;31152;49.190;8.122;2023-07-08T07:27:28;23.50;96.80
30186;DHT22;31152;49.190;8.122;2023-07-08T07:29:55;23.60;95.50
30186;DHT22;31152;49.190;8.122;2023-07-08T07:32:26;23.60;95.90
30186;DHT22;31152;49.190;8.122;2023-07-08T07:34:53;23.60;95.60
30186;DHT22;31152;49.190;8.122;2023-07-08T07:37:21;23.50;95.90
30186;DHT22;31152;49.190;8.122;2023-07-08T07:39:51;23.50;95.60
30186;DHT22;31152;49.190;8.122;2023-07-08T07:42:19;23.40;95.50
30186;DHT22;31152;49.190;8.122;2023-07-08T07:44:46;23.40;95.60
30186;DHT22;31152;49.190;8.122;2023-07-08T07:47:13;23.40;96.00
30186;DHT22;31152;49.190;8.122;2023-07-08T07:49:40;23.40;97.50
30186;DHT22;31152;49.190;8.122;2023-07-08T07:52:07;23.30;96.70
30186;DHT22;31152;49.190;8.122;2023-07-08T07:54:34;23.40;97.60
30186;DHT22;31152;49.190;8.122;2023-07-08T07:57:03;23.50;96.60
30186;DHT22;31152;49.190;8.122;2023-07-08T07:59:30;23.60;95.80
30186;DHT22;31152;49.190;8.122;2023-07-08T08:01:57;23.70;96.30
30186;DHT22;31152;49.190;8.122;2023-07-08T08:04:26;23.70;96.00
30186;DHT22;31152;49.190;8.122;2023-07-08T08:06:56;23.80;95.80
30186;DHT22;31152;49.190;8.122;2023-07-08T08:09:22;24.00;95.40
30186;DHT22;31152;49.190;8.122;2023-07-08T08:11:49;24.00;94.80
30186;DHT22;31152;49.190;8.122;2023-07-08T08:14:18;24.10;95.00
30186;DHT22;31152;49.190;8.122;2023-07-08T08:16:50;24.30;95.10
30186;DHT22;31152;49.190;8.122;2023-07-08T08:19:19;24.40;94.40
30186;DHT22;31152;49.190;8.122;2023-07-08T08:21:46;24.50;94.00
30186;DHT22;31152;49.190;8.122;2023-07-08T08:24:12;24.60;93.60
30186;DHT22;31152;49.190;8.122;2023-07-08T08:26:39;24.80;93.50
30186;DHT22;31152;49.190;8.122;2023-07-08T08:29:06;24.90;93.60
30186;DHT22;31152;49.190;8.122;2023-07-08T08:31:33;25.00;93.00
30186;DHT22;31152;49.190;8.122;2023-07-08T08:33:59;25.00;93.10
30186;DHT22;31152;49.190;8.122;2023-07-08T08:36:26;25.20;93.80
30186;DHT22;31152;49.190;8.122;2023-07-08T08:38:55;25.30;93.70
30186;DHT22;31152;49.190;8.122;2023-07-08T08:41:31;25.50;93.60
30186;DHT22;31152;49.190;8.122;2023-07-08T08:43:59;25.50;93.30
30186;DHT22;31152;49.190;8.122;2023-07-08T08:51:49;25.80;92.80
30186;DHT22;31152;49.190;8.122;2023-07-08T08:54:19;25.90;93.10
30186;DHT22;31152;49.190;8.122;2023-07-08T08:56:59;26.00;92.20
30186;DHT22;31152;49.190;8.122;2023-07-08T09:02:32;26.40;92.00
30186;DHT22;31152;49.190;8.122;2023-07-08T09:05:06;26.50;91.40
30186;DHT22;31152;49.190;8.122;2023-07-08T09:07:47;26.70;91.30
30186;DHT22;31152;49.190;8.122;2023-07-08T09:13:22;27.00;90.40
30186;DHT22;31152;49.190;8.122;2023-07-08T09:16:10;27.00;90.00
30186;DHT22;31152;49.190;8.122;2023-07-08T09:24:43;27.30;88.20
30186;DHT22;31152;49.190;8.122;2023-07-08T09:27:13;27.40;87.90
30186;DHT22;31152;49.190;8.122;2023-07-08T09:29:42;27.60;86.40
30186;DHT22;31152;49.190;8.122;2023-07-08T09:32:21;27.80;86.00
30186;DHT22;31152;49.190;8.122;2023-07-08T09:34:55;27.90;84.90
30186;DHT22;31152;49.190;8.122;2023-07-08T09:37:29;28.00;84.40
30186;DHT22;31152;49.190;8.122;2023-07-08T09:39:58;28.10;83.20
30186;DHT22;31152;49.190;8.122;2023-07-08T09:42:32;28.20;81.40
30186;DHT22;31152;49.190;8.122;2023-07-08T09:45:11;28.10;82.90
30186;DHT22;31152;49.190;8.122;2023-07-08T09:47:39;28.20;82.20
30186;DHT22;31152;49.190;8.122;2023-07-08T09:50:21;28.40;81.10
30186;DHT22;31152;49.190;8.122;2023-07-08T09:52:54;28.60;81.00
30186;DHT22;31152;49.190;8.122;2023-07-08T09:55:24;28.70;79.20
30186;DHT22;31152;49.190;8.122;2023-07-08T09:57:52;28.70;79.20
30186;DHT22;31152;49.190;8.122;2023-07-08T10:00:28;28.80;79.00
30186;DHT22;31152;49.190;8.122;2023-07-08T10:02:57;28.80;77.60
30186;DHT22;31152;49.190;8.122;2023-07-08T10:07:58;28.70;77.40
30186;DHT22;31152;49.190;8.122;2023-07-08T10:10:37;28.90;76.60
30186;DHT22;31152;49.190;8.122;2023-07-08T10:13:15;29.20;75.90
30186;DHT22;31152;49.190;8.122;2023-07-08T10:15:52;29.10;75.00
30186;DHT22;31152;49.190;8.122;2023-07-08T10:18:26;29.00;75.00
30186;DHT22;31152;49.190;8.122;2023-07-08T10:27:00;29.50;75.80
30186;DHT22;31152;49.190;8.122;2023-07-08T10:32:24;29.70;73.00
30186;DHT22;31152;49.190;8.122;2023-07-08T10:34:58;29.80;72.50
30186;DHT22;31152;49.190;8.122;2023-07-08T10:38:03;30.00;71.90
30186;DHT22;31152;49.190;8.122;2023-07-08T10:43:35;30.30;70.60
30186;DHT22;31152;49.190;8.122;2023-07-08T10:46:11;30.40;70.00
30186;DHT22;31152;49.190;8.122;2023-07-08T10:51:39;30.50;70.00
30186;DHT22;31152;49.190;8.122;2023-07-08T10:54:26;30.40;70.30
30186;DHT22;31152;49.190;8.122;2023-07-08T11:00:20;30.20;70.70
30186;DHT22;31152;49.190;8.122;2023-07-08T11:05:43;30.20;69.40
30186;DHT22;31152;49.190;8.122;2023-07-08T11:08:30;30.50;68.70
30186;DHT22;31152;49.190;8.122;2023-07-08T11:10:59;30.80;69.10
30186;DHT22;31152;49.190;8.122;2023-07-08T11:13:52;31.00;68.70
30186;DHT22;31152;49.190;8.122;2023-07-08T11:16:28;30.90;66.90
30186;DHT22;31152;49.190;8.122;2023-07-08T11:19:10;30.80;67.80
30186;DHT22;31152;49.190;8.122;2023-07-08T11:21:45;30.80;67.50
30186;DHT22;31152;49.190;8.122;2023-07-08T11:24:31;31.00;67.20
30186;DHT22;31152;49.190;8.122;2023-07-08T11:27:20;31.10;65.80
30186;DHT22;31152;49.190;8.122;2023-07-08T11:30:03;31.00;66.40
30186;DHT22;31152;49.190;8.122;2023-07-08T11:32:33;31.10;66.40
30186;DHT22;31152;49.190;8.122;2023-07-08T11:35:03;31.10;65.30
30186;DHT22;31152;49.190;8.122;2023-07-08T11:37:31;31.10;65.00
30186;DHT22;31152;49.190;8.122;2023-07-08T11:40:17;31.00;65.80
30186;DHT22;31152;49.190;8.122;2023-07-08T11:42:51;31.10;65.20
30186;DHT22;31152;49.190;8.122;2023-07-08T11:45:30;31.40;63.90
30186;DHT22;31152;49.190;8.122;2023-07-08T11:48:18;31.60;63.20
30186;DHT22;31152;49.190;8.122;2023-07-08T11:50:47;31.70;64.10
30186;DHT22;31152;49.190;8.122;2023-07-08T11:53:34;32.00;63.30
30186;DHT22;31152;49.190;8.122;2023-07-08T11:56:21;31.90;61.70
30186;DHT22;31152;49.190;8.122;2023-07-08T11:59:18;31.70;62.40
30186;DHT22;31152;49.190;8.122;2023-07-08T12:04:30;31.70;62.80
30186;DHT22;31152;49.190;8.122;2023-07-08T12:09:44;31.90;62.80
30186;DHT22;31152;49.190;8.122;2023-07-08T12:12:22;31.80;62.70
30186;DHT22;31152;49.190;8.122;2023-07-08T12:14:53;31.80;62.60
30186;DHT22;31152;49.190;8.122;2023-07-08T12:17:24;32.00;62.00
30186;DHT22;31152;49.190;8.122;2023-07-08T12:19:52;32.30;61.70
30186;DHT22;31152;49.190;8.122;2023-07-08T12:22:20;32.60;61.20
30186;DHT22;31152;49.190;8.122;2023-07-08T12:24:49;32.70;59.50
30186;DHT22;31152;49.190;8.122;2023-07-08T12:27:19;32.70;59.70
30186;DHT22;31152;49.190;8.122;2023-07-08T12:29:46;32.60;59.70
30186;DHT22;31152;49.190;8.122;2023-07-08T12:32:13;32.60;59.70
30186;DHT22;31152;49.190;8.122;2023-07-08T12:34:40;32.70;59.30
30186;DHT22;31152;49.190;8.122;2023-07-08T12:37:11;32.60;59.60
30186;DHT22;31152;49.190;8.122;2023-07-08T12:39:41;32.70;60.40
30186;DHT22;31152;49.190;8.122;2023-07-08T12:42:11;32.80;59.50
30186;DHT22;31152;49.190;8.122;2023-07-08T12:44:39;32.70;59.00
30186;DHT22;31152;49.190;8.122;2023-07-08T12:47:09;32.70;59.10
30186;DHT22;31152;49.190;8.122;2023-07-08T12:49:36;33.00;59.20
30186;DHT22;31152;49.190;8.122;2023-07-08T12:52:03;33.30;59.20
30186;DHT22;31152;49.190;8.122;2023-07-08T12:54:30;33.40;58.20
30186;DHT22;31152;49.190;8.122;2023-07-08T12:57:00;33.10;57.80
30186;DHT22;31152;49.190;8.122;2023-07-08T12:59:29;33.00;57.70
30186;DHT22;31152;49.190;8.122;2023-07-08T13:01:56;32.90;58.10
30186;DHT22;31152;49.190;8.122;2023-07-08T13:04:23;32.90;58.10
30186;DHT22;31152;49.190;8.122;2023-07-08T13:06:50;32.80;57.50
30186;DHT22;31152;49.190;8.122;2023-07-08T13:09:36;33.00;57.50
30186;DHT22;31152;49.190;8.122;2023-07-08T13:12:17;33.20;57.20
30186;DHT22;31152;49.190;8.122;2023-07-08T13:14:49;33.40;57.50
30186;DHT22;31152;49.190;8.122;2023-07-08T13:17:17;33.40;56.10
30186;DHT22;31152;49.190;8.122;2023-07-08T13:19:44;33.40;57.00
30186;DHT22;31152;49.190;8.122;2023-07-08T13:22:19;33.60;56.70
30186;DHT22;31152;49.190;8.122;2023-07-08T13:25:01;33.60;56.50
30186;DHT22;31152;49.190;8.122;2023-07-08T13:27:31;33.60;56.00
30186;DHT22;31152;49.190;8.122;2023-07-08T13:30:18;33.20;56.20
30186;DHT22;31152;49.190;8.122;2023-07-08T13:32:51;33.20;55.90
30186;DHT22;31152;49.190;8.122;2023-07-08T13:35:27;33.20;56.00
30186;DHT22;31152;49.190;8.122;2023-07-08T13:37:56;33.30;55.60
30186;DHT22;31152;49.190;8.122;2023-07-08T13:40:27;33.40;56.30
30186;DHT22;31152;49.190;8.122;2023-07-08T13:42:54;33.30;55.50
30186;DHT22;31152;49.190;8.122;2023-07-08T13:45:25;33.40;56.10
30186;DHT22;31152;49.190;8.122;2023-07-08T13:48:24;33.30;55.10
30186;DHT22;31152;49.190;8.122;2023-07-08T13:50:58;33.30;56.30
30186;DHT22;31152;49.190;8.122;2023-07-08T13:53:48;33.10;56.10
30186;DHT22;31152;49.190;8.122;2023-07-08T13:56:21;32.90;56.70
30186;DHT22;31152;49.190;8.122;2023-07-08T13:58:53;33.00;56.50
30186;DHT22;31152;49.190;8.122;2023-07-08T14:01:24;33.30;56.30
30186;DHT22;31152;49.190;8.122;2023-07-08T14:03:55;33.40;54.50
30186;DHT22;31152;49.190;8.122;2023-07-08T14:06:25;33.30;54.10
30186;DHT22;31152;49.190;8.122;2023-07-08T14:09:03;33.40;53.70
30186;DHT22;31152;49.190;8.122;2023-07-08T14:11:36;33.40;53.70
30186;DHT22;31152;49.190;8.122;2023-07-08T14:14:02;33.40;52.90
30186;DHT22;31152;49.190;8.122;2023-07-08T14:16:31;33.40;52.70
30186;DHT22;31152;49.190;8.122;2023-07-08T14:19:02;33.30;53.40
30186;DHT22;31152;49.190;8.122;2023-07-08T14:21:31;33.20;53.40
30186;DHT22;31152;49.190;8.122;2023-07-08T14:23:59;33.10;53.40
30186;DHT22;31152;49.190;8.122;2023-07-08T14:26:25;33.10;53.60
30186;DHT22;31152;49.190;8.122;2023-07-08T14:28:52;33.00;53.30
30186;DHT22;31152;49.190;8.122;2023-07-08T14:31:22;33.00;53.10
30186;DHT22;31152;49.190;8.122;2023-07-08T14:34:02;32.90;53.00
30186;DHT22;31152;49.190;8.122;2023-07-08T14:36:35;33.00;53.00
30186;DHT22;31152;49.190;8.122;2023-07-08T14:39:12;33.10;52.70
30186;DHT22;31152;49.190;8.122;2023-07-08T14:41:40;33.30;52.80
30186;DHT22;31152;49.190;8.122;2023-07-08T14:44:44;33.40;51.30
30186;DHT22;31152;49.190;8.122;2023-07-08T14:47:17;33.50;51.30
30186;DHT22;31152;49.190;8.122;2023-07-08T14:49:44;33.40;50.50
30186;DHT22;31152;49.190;8.122;2023-07-08T14:52:11;33.40;50.00
30186;DHT22;31152;49.190;8.122;2023-07-08T14:54:38;33.40;51.40
30186;DHT22;31152;49.190;8.122;2023-07-08T14:57:06;33.60;50.80
30186;DHT22;31152;49.190;8.122;2023-07-08T14:59:34;33.60;50.10
30186;DHT22;31152;49.190;8.122;2023-07-08T15:02:19;33.40;50.40
30186;DHT22;31152;49.190;8.122;2023-07-08T15:04:47;33.40;50.70
30186;DHT22;31152;49.190;8.122;2023-07-08T15:07:16;33.40;49.90
30186;DHT22;31152;49.190;8.122;2023-07-08T15:09:43;33.40;49.70
30186;DHT22;31152;49.190;8.122;2023-07-08T15:12:11;33.30;49.90
30186;DHT22;31152;49.190;8.122;2023-07-08T15:14:39;33.30;50.10
30186;DHT22;31152;49.190;8.122;2023-07-08T15:17:16;33.50;50.00
30186;DHT22;31152;49.190;8.122;2023-07-08T15:19:46;33.70;49.90
30186;DHT22;31152;49.190;8.122;2023-07-08T15:22:15;33.60;49.40
30186;DHT22;31152;49.190;8.122;2023-07-08T15:24:42;33.50;49.60
30186;DHT22;31152;49.190;8.122;2023-07-08T15:27:11;33.60;49.90
30186;DHT22;31152;49.190;8.122;2023-07-08T15:29:38;33.70;49.50
30186;DHT22;31152;49.190;8.122;2023-07-08T15:32:14;33.70;49.60
30186;DHT22;31152;49.190;8.122;2023-07-08T15:35:07;33.80;49.20
30186;DHT22;31152;49.190;8.122;2023-07-08T15:37:36;33.50;50.00
30186;DHT22;31152;49.190;8.122;2023-07-08T15:40:06;33.20;50.00
30186;DHT22;31152;49.190;8.122;2023-07-08T15:42:38;33.10;49.90
30186;DHT22;31152;49.190;8.122;2023-07-08T15:45:13;33.10;49.70
30186;DHT22;31152;49.190;8.122;2023-07-08T15:47:42;33.20;49.90
30186;DHT22;31152;49.190;8.122;2023-07-08T15:50:14;33.30;49.70
30186;DHT22;31152;49.190;8.122;2023-07-08T15:52:42;33.20;49.70
30186;DHT22;31152;49.190;8.122;2023-07-08T15:55:11;33.30;50.00
30186;DHT22;31152;49.190;8.122;2023-07-08T15:57:51;33.40;49.90
30186;DHT22;31152;49.190;8.122;2023-07-08T16:00:24;33.40;49.60
30186;DHT22;31152;49.190;8.122;2023-07-08T16:02:55;33.50;50.20
30186;DHT22;31152;49.190;8.122;2023-07-08T16:05:23;33.40;50.00
30186;DHT22;31152;49.190;8.122;2023-07-08T16:07:56;33.40;50.30
30186;DHT22;31152;49.190;8.122;2023-07-08T16:10:24;33.40;49.50
30186;DHT22;31152;49.190;8.122;2023-07-08T16:12:54;33.40;49.50
30186;DHT22;31152;49.190;8.122;2023-07-08T16:15:31;33.50;49.30
30186;DHT22;31152;49.190;8.122;2023-07-08T16:18:01;33.60;48.90
30186;DHT22;31152;49.190;8.122;2023-07-08T16:20:30;33.60;49.00
30186;DHT22;31152;49.190;8.122;2023-07-08T16:23:02;33.80;49.10
30186;DHT22;31152;49.190;8.122;2023-07-08T16:25:35;33.80;48.20
30186;DHT22;31152;49.190;8.122;2023-07-08T16:28:04;33.80;48.30
30186;DHT22;31152;49.190;8.122;2023-07-08T16:30:37;33.80;48.80
30186;DHT22;31152;49.190;8.122;2023-07-08T16:33:03;33.80;48.60
30186;DHT22;31152;49.190;8.122;2023-07-08T16:35:35;33.80;49.00
30186;DHT22;31152;49.190;8.122;2023-07-08T16:38:01;33.70;49.20
30186;DHT22;31152;49.190;8.122;2023-07-08T16:40:28;33.50;49.00
30186;DHT22;31152;49.190;8.122;2023-07-08T16:42:57;33.50;49.50
30186;DHT22;31152;49.190;8.122;2023-07-08T16:45:25;33.50;50.30
30186;DHT22;31152;49.190;8.122;2023-07-08T16:47:55;33.50;50.40